Time;durP1;ratioP1;P1;durP2;ratioP2;P2;SDS_P1;SDS_P2;PMS_P1;PMS_P2;Temp;Humidity;BMP_temperature;BMP_pressure;BME280_temperature;BME280_humidity;BME280_pressure;Samples;Min_cycle;Max_cycle;Signal;HPM_P1;HPM_P2
2023/06/15 00:00:48;;;;;;;4.22;2.50;;;23.60;83.40;;;;;;5070056;28;20420;-75
2023/06/15 00:03:15;;;;;;;6.03;2.47;;;23.60;83.30;;;;;;5051475;28;20078;-74
2023/06/15 00:05:40;;;;;;;6.40;2.53;;;23.60;83.40;;;;;;5035299;28;20041;-74
2023/06/15 00:08:06;;;;;;;5.70;2.72;;;23.60;83.40;;;;;;5056830;28;20045;-74
2023/06/15 00:10:32;;;;;;;8.57;2.70;;;23.60;83.40;;;;;;5052959;28;20441;-74
2023/06/15 00:12:58;;;;;;;3.90;2.45;;;23.60;83.50;;;;;;5053857;28;20056;-74
2023/06/15 00:15:23;;;;;;;5.13;2.55;;;23.60;83.50;;;;;;5038129;28;20410;-75
2023/06/15 00:17:49;;;;;;;6.05;2.95;;;23.60;83.50;;;;;;5041623;28;20052;-74
2023/06/15 00:20:16;;;;;;;5.43;2.55;;;23.60;83.50;;;;;;5053831;28;20041;-74
2023/06/15 00:22:45;;;;;;;4.53;2.60;;;23.60;83.50;;;;;;5066527;28;20124;-74
2023/06/15 00:25:11;;;;;;;5.22;2.30;;;23.60;83.50;;;;;;5045948;28;20395;-74
2023/06/15 00:27:37;;;;;;;4.13;2.55;;;23.60;83.40;;;;;;5017590;28;20045;-80
2023/06/15 00:30:04;;;;;;;4.13;2.50;;;23.60;83.50;;;;;;5026268;28;20041;-74
2023/06/15 00:32:31;;;;;;;7.22;2.85;;;23.60;83.50;;;;;;5012076;28;20041;-74
2023/06/15 00:34:56;;;;;;;3.63;2.38;;;23.60;83.60;;;;;;5033474;28;20044;-72
2023/06/15 00:37:22;;;;;;;5.75;2.30;;;23.60;83.50;;;;;;5045247;28;20070;-74
2023/06/15 00:39:48;;;;;;;6.78;3.00;;;23.60;83.60;;;;;;5030889;28;20065;-73
2023/06/15 00:42:14;;;;;;;5.05;2.60;;;23.50;83.70;;;;;;5031083;28;20467;-73
2023/06/15 00:44:40;;;;;;;5.72;2.63;;;23.50;83.70;;;;;;5033832;28;20041;-79
2023/06/15 00:47:06;;;;;;;5.28;2.70;;;23.50;83.80;;;;;;5033151;28;20163;-73
2023/06/15 00:49:33;;;;;;;6.20;2.72;;;23.50;83.80;;;;;;5043992;28;20041;-73
2023/06/15 00:52:00;;;;;;;6.70;2.80;;;23.50;83.90;;;;;;5033629;28;20199;-73
2023/06/15 00:54:26;;;;;;;4.97;2.78;;;23.50;83.90;;;;;;5017449;28;20042;-72
2023/06/15 00:56:52;;;;;;;4.65;2.90;;;23.50;84.00;;;;;;5046791;28;20033;-73
2023/06/15 00:59:19;;;;;;;4.38;2.60;;;23.50;84.00;;;;;;5034186;28;20090;-72
2023/06/15 01:01:47;;;;;;;4.50;2.78;;;23.50;84.00;;;;;;5033108;28;20084;-73
2023/06/15 01:04:14;;;;;;;8.50;2.80;;;23.50;84.10;;;;;;5033886;28;20127;-73
2023/06/15 01:06:51;;;;;;;4.43;2.58;;;23.50;84.10;;;;;;5033507;28;20049;-72
2023/06/15 01:09:20;;;;;;;4.85;2.47;;;23.50;84.10;;;;;;5048409;28;20037;-72
2023/06/15 01:11:47;;;;;;;7.75;3.00;;;23.50;84.10;;;;;;5033779;28;20047;-72
2023/06/15 01:14:13;;;;;;;5.40;2.70;;;23.50;84.20;;;;;;5027187;28;20049;-74
2023/06/15 01:16:43;;;;;;;4.63;2.47;;;23.50;84.20;;;;;;5037089;28;20033;-72
2023/06/15 01:19:29;;;;;;;4.90;2.67;;;23.50;84.30;;;;;;5035284;28;20049;-73
2023/06/15 01:21:59;;;;;;;7.00;3.13;;;23.50;84.30;;;;;;5040426;28;20037;-74
2023/06/15 01:24:35;;;;;;;7.75;2.72;;;23.50;84.40;;;;;;5037690;28;20120;-74
2023/06/15 01:27:04;;;;;;;4.85;2.60;;;23.50;84.40;;;;;;5036778;28;20048;-74
2023/06/15 01:29:32;;;;;;;5.30;3.00;;;23.50;84.50;;;;;;5035831;28;20563;-73
2023/06/15 01:31:59;;;;;;;6.57;2.75;;;23.50;84.50;;;;;;5047218;28;20382;-74
2023/06/15 01:34:25;;;;;;;6.63;2.90;;;23.50;84.60;;;;;;5037009;28;20059;-74
2023/06/15 01:36:50;;;;;;;5.47;2.83;;;23.50;84.60;;;;;;5036436;28;20040;-74
2023/06/15 01:39:16;;;;;;;4.95;2.67;;;23.50;84.60;;;;;;5052743;28;20084;-73
2023/06/15 01:41:43;;;;;;;5.10;2.85;;;23.50;84.70;;;;;;5053833;28;20044;-73
2023/06/15 01:44:10;;;;;;;3.78;2.35;;;23.50;84.80;;;;;;5052935;28;20421;-73
2023/06/15 01:46:36;;;;;;;5.20;2.80;;;23.50;84.80;;;;;;5054447;28;20110;-73
2023/06/15 01:49:01;;;;;;;5.60;2.55;;;23.50;84.80;;;;;;5035342;28;20033;-73
2023/06/15 01:51:30;;;;;;;5.95;3.00;;;23.40;84.80;;;;;;5031311;28;20034;-73
2023/06/15 01:53:56;;;;;;;5.10;2.58;;;23.40;84.90;;;;;;5051001;28;20040;-73
2023/06/15 01:56:23;;;;;;;6.57;2.90;;;23.40;84.90;;;;;;5036788;28;20374;-73
2023/06/15 01:58:48;;;;;;;4.55;2.67;;;23.50;85.00;;;;;;5035958;28;20498;-79
2023/06/15 02:01:14;;;;;;;7.28;2.75;;;23.40;85.00;;;;;;5035513;28;20029;-73
2023/06/15 02:03:40;;;;;;;4.70;2.42;;;23.40;85.00;;;;;;5041545;28;20053;-73
2023/06/15 02:06:06;;;;;;;4.68;2.47;;;23.40;85.00;;;;;;5035706;28;20120;-73
2023/06/15 02:08:32;;;;;;;4.70;2.83;;;23.40;85.00;;;;;;5035834;28;20041;-73
2023/06/15 02:10:57;;;;;;;5.70;2.78;;;23.40;85.10;;;;;;5035373;28;20033;-73
2023/06/15 02:13:23;;;;;;;5.00;2.47;;;23.40;85.10;;;;;;5051410;28;20532;-73
2023/06/15 02:15:49;;;;;;;6.68;2.55;;;23.40;85.20;;;;;;5052787;28;20086;-73
2023/06/15 02:18:16;;;;;;;3.78;2.60;;;23.40;85.30;;;;;;5035760;28;20041;-73
2023/06/15 02:20:43;;;;;;;6.88;2.78;;;23.40;85.20;;;;;;5035246;28;20045;-73
2023/06/15 02:23:08;;;;;;;6.50;2.97;;;23.40;85.30;;;;;;5017285;28;20041;-73
2023/06/15 02:25:34;;;;;;;7.05;2.67;;;23.40;85.30;;;;;;5029886;28;20124;-73
2023/06/15 02:28:00;;;;;;;5.50;2.90;;;23.40;85.30;;;;;;5052116;28;20044;-73
2023/06/15 02:30:26;;;;;;;4.72;2.60;;;23.40;85.30;;;;;;5035755;28;20094;-73
2023/06/15 02:32:53;;;;;;;4.30;2.63;;;23.40;85.40;;;;;;5015436;28;20091;-73
2023/06/15 02:35:20;;;;;;;5.53;3.00;;;23.40;85.40;;;;;;5051405;28;20033;-73
2023/06/15 02:37:46;;;;;;;4.35;2.47;;;23.30;85.40;;;;;;5035988;28;20073;-73
2023/06/15 02:40:12;;;;;;;7.28;3.10;;;23.30;85.50;;;;;;5034835;28;20036;-73
2023/06/15 02:42:39;;;;;;;7.05;2.70;;;23.30;85.50;;;;;;5035385;28;20033;-73
2023/06/15 02:45:06;;;;;;;4.90;2.53;;;23.30;85.50;;;;;;5028451;28;20045;-73
2023/06/15 02:47:33;;;;;;;4.93;2.78;;;23.30;85.60;;;;;;5052320;28;20048;-73
2023/06/15 02:49:59;;;;;;;5.75;2.70;;;23.30;85.60;;;;;;5035104;28;20044;-73
2023/06/15 02:52:26;;;;;;;4.35;2.63;;;23.30;85.70;;;;;;5034325;28;20585;-73
2023/06/15 02:54:52;;;;;;;5.78;2.78;;;23.30;85.70;;;;;;5052308;28;20033;-73
2023/06/15 02:57:18;;;;;;;8.20;2.90;;;23.30;85.70;;;;;;5045615;28;20059;-73
2023/06/15 02:59:44;;;;;;;5.25;2.60;;;23.30;85.70;;;;;;5035255;28;20125;-73
2023/06/15 03:02:10;;;;;;;6.05;2.78;;;23.30;85.70;;;;;;5026737;28;20437;-74
2023/06/15 03:04:47;;;;;;;4.78;3.03;;;23.20;85.70;;;;;;5034342;28;20045;-73
2023/06/15 03:07:16;;;;;;;6.20;2.90;;;23.20;85.70;;;;;;5053917;28;20482;-73
2023/06/15 03:09:50;;;;;;;5.53;3.00;;;23.20;85.70;;;;;;5049354;28;20123;-73
2023/06/15 03:12:16;;;;;;;3.53;2.57;;;23.20;85.70;;;;;;5039822;28;20432;-73
2023/06/15 03:14:50;;;;;;;6.43;2.53;;;23.20;85.70;;;;;;5034575;28;20279;-74
2023/06/15 03:17:21;;;;;;;5.22;2.90;;;23.20;85.70;;;;;;5017991;28;20037;-73
2023/06/15 03:19:47;;;;;;;5.32;2.70;;;23.20;85.70;;;;;;5038019;28;20506;-73
2023/06/15 03:22:14;;;;;;;5.18;2.53;;;23.20;85.70;;;;;;5051779;28;20040;-72
2023/06/15 03:24:41;;;;;;;4.28;2.70;;;23.20;85.80;;;;;;5034250;28;20098;-73
2023/06/15 03:27:10;;;;;;;5.55;2.70;;;23.10;85.70;;;;;;5027977;28;20048;-73
2023/06/15 03:29:39;;;;;;;5.47;2.88;;;23.10;85.80;;;;;;5037317;28;20049;-73
2023/06/15 03:32:07;;;;;;;7.35;2.70;;;23.20;85.90;;;;;;5033758;28;20040;-73
2023/06/15 03:34:40;;;;;;;5.50;2.55;;;23.10;85.90;;;;;;5034156;28;20041;-73
2023/06/15 03:37:06;;;;;;;4.03;2.60;;;23.10;85.90;;;;;;5049126;28;20115;-73
2023/06/15 03:39:32;;;;;;;7.22;2.30;;;23.10;85.90;;;;;;5034782;28;20482;-73
2023/06/15 03:41:58;;;;;;;4.80;2.95;;;23.10;85.90;;;;;;5034204;28;20112;-73
2023/06/15 03:44:23;;;;;;;6.35;3.15;;;23.10;85.90;;;;;;5017457;28;20121;-73
2023/06/15 03:46:49;;;;;;;4.97;3.00;;;23.10;85.90;;;;;;5034747;28;20155;-75
2023/06/15 03:49:15;;;;;;;5.35;2.92;;;23.10;85.90;;;;;;5034235;28;20037;-73
2023/06/15 03:51:41;;;;;;;6.15;2.97;;;23.10;86.00;;;;;;5034768;28;20075;-73
2023/06/15 03:54:07;;;;;;;6.68;2.92;;;23.10;86.00;;;;;;5046619;28;20043;-75
2023/06/15 03:56:32;;;;;;;4.65;3.00;;;23.10;86.00;;;;;;5025537;28;20124;-73
2023/06/15 03:58:58;;;;;;;5.13;2.90;;;23.10;86.00;;;;;;5038193;28;20029;-73
2023/06/15 04:01:26;;;;;;;5.90;3.13;;;23.10;86.00;;;;;;5033421;28;20045;-72
2023/06/15 04:03:54;;;;;;;6.75;2.92;;;23.10;86.20;;;;;;5036808;28;20053;-73
2023/06/15 04:06:21;;;;;;;6.93;3.13;;;23.00;86.10;;;;;;5020772;28;20041;-73
2023/06/15 04:08:47;;;;;;;5.07;3.15;;;23.00;86.20;;;;;;5057789;28;20055;-73
2023/06/15 04:11:14;;;;;;;5.80;2.85;;;23.00;86.30;;;;;;5049504;28;20474;-75
2023/06/15 04:13:40;;;;;;;4.78;2.78;;;22.90;86.40;;;;;;5048172;28;20041;-76
2023/06/15 04:16:06;;;;;;;6.40;2.78;;;22.90;86.50;;;;;;5041342;28;20463;-74
2023/06/15 04:18:32;;;;;;;9.25;2.97;;;22.90;86.50;;;;;;5047797;28;20040;-74
2023/06/15 04:20:57;;;;;;;7.53;3.17;;;22.90;86.50;;;;;;5032346;28;20033;-74
2023/06/15 04:23:23;;;;;;;7.45;2.78;;;23.00;86.60;;;;;;5051463;28;20041;-75
2023/06/15 04:25:49;;;;;;;12.15;3.42;;;23.00;86.60;;;;;;5033845;28;20126;-76
2023/06/15 04:28:16;;;;;;;5.38;2.92;;;23.00;86.70;;;;;;5057925;28;20047;-75
2023/06/15 04:30:46;;;;;;;5.30;3.05;;;23.00;86.70;;;;;;5028316;28;20044;-74
2023/06/15 04:33:15;;;;;;;5.43;3.10;;;23.00;86.70;;;;;;5017529;28;20131;-79
2023/06/15 04:35:45;;;;;;;6.13;2.92;;;23.00;86.80;;;;;;5050223;28;20124;-75
2023/06/15 04:38:12;;;;;;;5.20;2.70;;;23.10;86.90;;;;;;5033117;28;20390;-81
2023/06/15 04:40:39;;;;;;;4.72;3.00;;;23.00;86.90;;;;;;5041181;28;20048;-74
2023/06/15 04:43:05;;;;;;;6.43;3.05;;;23.10;87.00;;;;;;5035506;28;20071;-74
2023/06/15 04:45:30;;;;;;;5.88;2.85;;;23.10;87.00;;;;;;5036465;28;20620;-74
2023/06/15 04:47:56;;;;;;;4.53;2.60;;;23.10;87.10;;;;;;5037443;28;20056;-74
2023/06/15 04:50:22;;;;;;;8.45;3.15;;;23.10;87.10;;;;;;5044965;28;20097;-74
2023/06/15 04:52:48;;;;;;;3.75;2.63;;;23.00;87.10;;;;;;5037907;28;20041;-74
2023/06/15 04:55:14;;;;;;;6.43;3.20;;;23.00;87.20;;;;;;5037197;28;20051;-79
2023/06/15 04:57:40;;;;;;;6.50;3.30;;;23.10;87.20;;;;;;5033502;28;20128;-74
2023/06/15 05:00:07;;;;;;;5.72;3.00;;;23.10;87.20;;;;;;5031740;28;20168;-74
2023/06/15 05:02:33;;;;;;;5.90;3.30;;;23.10;87.20;;;;;;5034939;28;20061;-75
2023/06/15 05:04:59;;;;;;;5.47;3.30;;;23.10;87.20;;;;;;5037553;28;20064;-75
2023/06/15 05:07:24;;;;;;;5.30;2.83;;;23.10;87.10;;;;;;5050878;28;20055;-75
2023/06/15 05:09:50;;;;;;;8.20;3.53;;;23.10;87.10;;;;;;5032803;28;20040;-76
2023/06/15 05:12:16;;;;;;;6.53;3.22;;;23.10;87.00;;;;;;5040673;28;20087;-78
2023/06/15 05:14:42;;;;;;;6.20;2.88;;;23.20;87.00;;;;;;5047506;28;20053;-74
2023/06/15 05:17:08;;;;;;;5.57;3.28;;;23.20;86.90;;;;;;5017535;28;20100;-75
2023/06/15 05:19:33;;;;;;;5.88;2.92;;;23.20;86.90;;;;;;5032742;28;20044;-74
2023/06/15 05:22:02;;;;;;;6.78;3.03;;;23.20;86.80;;;;;;5023350;28;20038;-74
2023/06/15 05:24:28;;;;;;;5.45;2.80;;;23.30;86.80;;;;;;5051027;28;20045;-74
2023/06/15 05:26:54;;;;;;;5.85;3.03;;;23.30;86.70;;;;;;5034143;28;20095;-74
2023/06/15 05:29:20;;;;;;;7.53;2.92;;;23.30;86.60;;;;;;5048123;28;20098;-74
2023/06/15 05:31:46;;;;;;;6.45;3.35;;;23.40;86.60;;;;;;5049589;28;20041;-74
2023/06/15 05:34:12;;;;;;;6.15;3.00;;;23.40;86.50;;;;;;5020309;28;20098;-74
2023/06/15 05:36:38;;;;;;;5.07;3.00;;;23.40;86.40;;;;;;5020019;28;20278;-74
2023/06/15 05:39:04;;;;;;;4.78;2.90;;;23.50;86.40;;;;;;5036800;28;20045;-74
2023/06/15 05:41:30;;;;;;;5.22;2.80;;;23.50;86.30;;;;;;5018962;28;20039;-74
2023/06/15 05:43:58;;;;;;;7.22;2.75;;;23.60;86.30;;;;;;5037026;28;20068;-74
2023/06/15 05:46:23;;;;;;;6.57;3.10;;;23.60;86.20;;;;;;5036298;28;20106;-74
2023/06/15 05:48:49;;;;;;;7.07;2.70;;;23.60;86.10;;;;;;5053140;28;20048;-74
2023/06/15 05:51:15;;;;;;;8.40;3.10;;;23.70;86.00;;;;;;5037288;28;20497;-74
2023/06/15 05:53:41;;;;;;;4.35;3.13;;;23.70;85.80;;;;;;5046654;28;20597;-77
2023/06/15 05:56:06;;;;;;;5.50;2.88;;;23.70;85.70;;;;;;5035904;28;20040;-74
2023/06/15 05:58:32;;;;;;;7.80;3.00;;;23.80;85.60;;;;;;5037077;28;20048;-74
2023/06/15 06:00:58;;;;;;;5.32;3.45;;;23.80;85.60;;;;;;5000705;28;20080;-75
2023/06/15 06:03:23;;;;;;;4.25;2.90;;;23.80;85.40;;;;;;5041926;28;20044;-79
2023/06/15 06:05:49;;;;;;;3.97;2.72;;;23.90;85.30;;;;;;5042874;28;20049;-74
2023/06/15 06:08:16;;;;;;;4.55;2.70;;;23.90;85.30;;;;;;5021739;28;20080;-74
2023/06/15 06:10:42;;;;;;;6.75;2.55;;;24.00;85.30;;;;;;5055109;28;20052;-74
2023/06/15 06:13:08;;;;;;;7.40;3.10;;;24.00;85.30;;;;;;5009055;28;20055;-74
2023/06/15 06:15:34;;;;;;;5.90;2.63;;;24.00;85.20;;;;;;5045570;28;20045;-73
2023/06/15 06:18:01;;;;;;;5.38;2.78;;;24.10;85.20;;;;;;5037652;28;20037;-74
2023/06/15 06:20:27;;;;;;;4.70;2.83;;;24.10;85.10;;;;;;5041423;28;20114;-73
2023/06/15 06:22:52;;;;;;;4.07;2.72;;;24.20;85.60;;;;;;5051812;28;20036;-73
2023/06/15 06:25:18;;;;;;;6.85;2.45;;;24.30;85.20;;;;;;5038525;28;20064;-73
2023/06/15 06:27:44;;;;;;;3.88;2.50;;;24.30;84.90;;;;;;5021388;28;20129;-72
2023/06/15 06:30:10;;;;;;;4.15;2.55;;;24.40;84.80;;;;;;5016154;28;20049;-73
2023/06/15 06:32:36;;;;;;;3.53;2.38;;;24.40;84.70;;;;;;5052740;28;20478;-73
2023/06/15 06:35:03;;;;;;;7.05;2.50;;;24.40;84.70;;;;;;5038594;28;20045;-73
2023/06/15 06:37:28;;;;;;;6.30;2.67;;;24.40;84.60;;;;;;5035249;28;20087;-74
2023/06/15 06:39:54;;;;;;;6.22;2.53;;;24.40;84.50;;;;;;5052070;28;20068;-74
2023/06/15 06:42:20;;;;;;;3.78;2.50;;;24.50;84.50;;;;;;5053032;28;20462;-74
2023/06/15 06:44:46;;;;;;;9.48;3.08;;;24.50;84.40;;;;;;5039412;28;20056;-73
2023/06/15 06:47:11;;;;;;;5.20;2.65;;;24.50;84.30;;;;;;5020767;28;20040;-75
2023/06/15 06:49:37;;;;;;;4.07;2.40;;;24.60;84.30;;;;;;5040636;28;20055;-76
2023/06/15 06:52:04;;;;;;;3.60;2.60;;;24.60;84.20;;;;;;5035071;28;20044;-75
2023/06/15 06:54:30;;;;;;;4.38;2.30;;;24.60;84.10;;;;;;5034413;28;20121;-79
2023/06/15 06:56:56;;;;;;;3.97;2.50;;;24.60;83.90;;;;;;5041906;28;20378;-75
2023/06/15 06:59:22;;;;;;;7.30;2.50;;;24.70;83.90;;;;;;5000752;28;20037;-74
2023/06/15 07:01:47;;;;;;;3.53;2.45;;;24.70;83.70;;;;;;4989259;28;20050;-75
2023/06/15 07:04:13;;;;;;;3.90;2.53;;;24.70;83.70;;;;;;5033402;28;20364;-75
2023/06/15 07:06:39;;;;;;;4.70;2.60;;;24.80;83.60;;;;;;5002896;28;20048;-75
2023/06/15 07:09:05;;;;;;;3.72;2.30;;;24.80;83.50;;;;;;5001747;28;20472;-75
2023/06/15 07:11:30;;;;;;;4.15;2.75;;;24.90;83.50;;;;;;5027336;28;20033;-81
2023/06/15 07:13:57;;;;;;;5.50;2.45;;;24.90;83.40;;;;;;5009528;28;20572;-75
2023/06/15 07:16:23;;;;;;;6.45;2.42;;;24.90;83.30;;;;;;5006584;28;20049;-75
2023/06/15 07:18:48;;;;;;;5.90;2.35;;;24.90;83.20;;;;;;5001952;28;20076;-74
2023/06/15 07:21:14;;;;;;;4.78;2.28;;;24.90;83.00;;;;;;5049107;28;20352;-73
2023/06/15 07:23:40;;;;;;;5.60;2.60;;;25.00;83.00;;;;;;5013731;28;20080;-74
2023/06/15 07:26:06;;;;;;;7.00;2.70;;;25.00;83.00;;;;;;5027877;28;20121;-75
2023/06/15 07:28:31;;;;;;;7.78;2.90;;;25.10;82.90;;;;;;5002962;28;20042;-74
2023/06/15 07:30:57;;;;;;;8.73;2.67;;;25.10;82.90;;;;;;5040134;28;20037;-75
2023/06/15 07:33:23;;;;;;;3.72;2.40;;;25.10;82.80;;;;;;5014938;28;20041;-74
2023/06/15 07:35:48;;;;;;;4.80;2.47;;;25.20;82.80;;;;;;5049212;28;20122;-74
2023/06/15 07:38:14;;;;;;;10.13;3.20;;;25.20;82.70;;;;;;5017346;28;20042;-76
2023/06/15 07:40:40;;;;;;;3.72;2.25;;;25.20;82.60;;;;;;5006059;28;20128;-76
2023/06/15 07:43:06;;;;;;;6.80;2.65;;;25.20;82.50;;;;;;5044552;28;20037;-76
2023/06/15 07:45:32;;;;;;;4.70;2.40;;;25.20;82.40;;;;;;5046556;28;20033;-76
2023/06/15 07:47:57;;;;;;;4.53;2.50;;;25.30;82.30;;;;;;5048091;28;20041;-76
2023/06/15 07:50:23;;;;;;;6.78;2.42;;;25.30;82.10;;;;;;5027061;28;20034;-76
2023/06/15 07:52:51;;;;;;;6.57;2.47;;;25.30;82.00;;;;;;5047608;28;20052;-76
2023/06/15 07:55:16;;;;;;;4.90;2.70;;;25.30;81.80;;;;;;5031045;28;20045;-76
2023/06/15 07:57:42;;;;;;;4.72;2.35;;;25.40;81.90;;;;;;5010963;28;20132;-76
2023/06/15 08:00:08;;;;;;;5.50;2.30;;;25.40;81.80;;;;;;4998031;28;20067;-74
2023/06/15 08:02:34;;;;;;;3.35;2.20;;;25.40;81.80;;;;;;5012909;28;20050;-75
2023/06/15 08:05:01;;;;;;;4.15;2.67;;;25.40;81.80;;;;;;5014103;28;20049;-75
2023/06/15 08:07:28;;;;;;;3.40;2.10;;;25.40;81.80;;;;;;5031093;28;20155;-74
2023/06/15 08:09:54;;;;;;;3.92;2.13;;;25.40;81.80;;;;;;5006923;28;20047;-75
2023/06/15 08:12:20;;;;;;;4.85;2.47;;;25.50;81.80;;;;;;5019349;28;20095;-75
2023/06/15 08:14:45;;;;;;;4.50;2.47;;;25.50;81.70;;;;;;5021603;28;20081;-76
2023/06/15 08:17:11;;;;;;;5.68;2.70;;;25.50;81.60;;;;;;5025756;28;20059;-72
2023/06/15 08:19:37;;;;;;;7.10;2.42;;;25.50;81.50;;;;;;5036050;28;20038;-73
2023/06/15 08:22:03;;;;;;;4.38;2.53;;;25.50;81.60;;;;;;5037391;28;20037;-75
2023/06/15 08:24:28;;;;;;;3.83;2.20;;;25.50;81.50;;;;;;5003884;28;20037;-75
2023/06/15 08:26:54;;;;;;;4.00;2.20;;;25.50;81.40;;;;;;5034080;28;20044;-75
2023/06/15 08:29:20;;;;;;;3.80;2.58;;;25.50;81.20;;;;;;5038448;28;20065;-75
2023/06/15 08:31:46;;;;;;;5.45;2.45;;;25.50;81.20;;;;;;5008438;28;20045;-75
2023/06/15 08:34:12;;;;;;;3.55;2.42;;;25.60;81.20;;;;;;5018279;28;20034;-75
2023/06/15 08:36:38;;;;;;;3.03;2.30;;;25.60;81.30;;;;;;5034626;28;20068;-75
2023/06/15 08:39:03;;;;;;;5.25;2.40;;;25.60;81.30;;;;;;5043883;28;20089;-75
2023/06/15 08:41:30;;;;;;;8.25;2.60;;;25.60;81.20;;;;;;5020047;28;20085;-73
2023/06/15 08:43:56;;;;;;;6.15;2.25;;;25.60;81.20;;;;;;5034010;28;20037;-74
2023/06/15 08:46:25;;;;;;;6.68;2.40;;;25.60;81.30;;;;;;5034135;28;20048;-74
2023/06/15 08:48:53;;;;;;;5.05;2.33;;;25.60;81.30;;;;;;5015445;28;20352;-74
2023/06/15 08:51:22;;;;;;;4.57;2.35;;;25.60;81.20;;;;;;5035264;28;20775;-74
2023/06/15 08:53:48;;;;;;;4.53;2.60;;;25.70;81.10;;;;;;5036400;28;20041;-74
2023/06/15 08:56:14;;;;;;;7.28;2.42;;;25.60;80.90;;;;;;5025555;28;20061;-74
2023/06/15 08:58:41;;;;;;;7.00;2.90;;;25.70;80.90;;;;;;5016096;28;20042;-74
2023/06/15 09:01:08;;;;;;;5.88;2.53;;;25.70;80.40;;;;;;5043493;28;20044;-73
2023/06/15 09:03:34;;;;;;;25.42;5.35;;;25.70;80.50;;;;;;5029207;28;20044;-74
2023/06/15 09:06:00;;;;;;;12.38;4.07;;;25.70;80.90;;;;;;5041227;28;20044;-73
2023/06/15 09:08:26;;;;;;;17.38;4.38;;;25.80;81.40;;;;;;5055286;28;20367;-73
2023/06/15 09:11:08;;;;;;;8.48;3.17;;;25.80;80.80;;;;;;5006334;28;20036;-77
2023/06/15 09:13:35;;;;;;;9.70;3.13;;;25.80;80.30;;;;;;5054902;28;20095;-74
2023/06/15 09:16:02;;;;;;;10.07;3.60;;;25.80;80.30;;;;;;5053255;28;20378;-75
2023/06/15 09:18:28;;;;;;;9.07;3.13;;;25.80;80.00;;;;;;5027502;28;20041;-75
2023/06/15 09:21:03;;;;;;;6.82;3.38;;;25.80;79.70;;;;;;5042428;28;20508;-75
2023/06/15 09:23:33;;;;;;;7.68;3.10;;;25.80;79.60;;;;;;5012862;28;20044;-75
2023/06/15 09:25:59;;;;;;;7.07;3.28;;;25.80;79.30;;;;;;5021045;28;20128;-75
2023/06/15 09:28:28;;;;;;;6.38;3.33;;;25.80;79.30;;;;;;5017019;28;20530;-75
2023/06/15 09:30:59;;;;;;;11.10;3.65;;;25.80;79.10;;;;;;5027254;28;20029;-76
2023/06/15 09:33:25;;;;;;;10.10;4.13;;;25.80;79.30;;;;;;5035733;28;20051;-76
2023/06/15 09:35:59;;;;;;;10.90;4.05;;;25.80;79.40;;;;;;5033820;28;20091;-79
2023/06/15 09:38:26;;;;;;;;;;;25.80;79.60;;;;;;5045088;28;20044;-75
2023/06/15 09:40:53;;;;;;;9.75;3.63;;;25.90;79.50;;;;;;5050294;28;19999;-79
2023/06/15 09:43:20;;;;;;;9.07;3.40;;;25.90;79.40;;;;;;5061493;28;20049;-77
2023/06/15 09:45:53;;;;;;;6.50;2.90;;;25.90;80.10;;;;;;5046507;28;20365;-75
2023/06/15 09:48:20;;;;;;;7.13;3.28;;;25.90;79.30;;;;;;5043504;28;20041;-75
2023/06/15 09:50:51;;;;;;;9.57;2.63;;;25.80;79.10;;;;;;5059384;28;20048;-75
2023/06/15 09:53:18;;;;;;;10.02;3.53;;;25.90;79.20;;;;;;5049042;28;20040;-75
2023/06/15 09:55:46;;;;;;;6.88;3.20;;;25.90;79.00;;;;;;5044548;28;20127;-75
2023/06/15 09:58:12;;;;;;;5.85;3.03;;;25.90;79.10;;;;;;5046123;28;20506;-76
2023/06/15 10:00:38;;;;;;;5.70;3.00;;;25.90;79.10;;;;;;5038596;28;20082;-75
2023/06/15 10:03:08;;;;;;;5.75;2.80;;;25.90;78.90;;;;;;5034557;28;20057;-75
2023/06/15 10:05:43;;;;;;;7.80;3.33;;;25.80;78.80;;;;;;5037033;28;20037;-73
2023/06/15 10:08:11;;;;;;;7.53;3.42;;;25.90;78.90;;;;;;5033094;28;20128;-74
2023/06/15 10:10:40;;;;;;;7.28;3.45;;;25.90;79.10;;;;;;5018241;28;20069;-74
2023/06/15 10:13:10;;;;;;;7.75;3.22;;;25.90;79.20;;;;;;5018161;28;20075;-78
2023/06/15 10:15:36;;;;;;;5.35;2.88;;;25.90;79.10;;;;;;5034857;28;20037;-73
2023/06/15 10:18:05;;;;;;;7.45;3.08;;;25.80;79.60;;;;;;5042463;28;20041;-75
2023/06/15 10:20:33;;;;;;;5.28;3.00;;;25.90;79.10;;;;;;5051824;28;20044;-75
2023/06/15 10:23:08;;;;;;;6.28;2.78;;;25.80;79.00;;;;;;5039186;28;20048;-77
2023/06/15 10:25:35;;;;;;;8.25;3.13;;;25.80;78.90;;;;;;5017958;28;20045;-76
2023/06/15 10:28:03;;;;;;;7.10;3.08;;;25.80;78.70;;;;;;5034650;28;20044;-76
2023/06/15 10:30:40;;;;;;;7.82;2.85;;;25.80;78.70;;;;;;5042254;28;20510;-75
2023/06/15 10:33:31;;;;;;;6.50;2.78;;;25.80;78.90;;;;;;5034687;28;20095;-74
2023/06/15 10:36:05;;;;;;;5.35;2.95;;;25.80;79.10;;;;;;5020278;28;20128;-75
2023/06/15 10:38:45;;;;;;;7.65;3.45;;;25.80;79.00;;;;;;5033489;28;20157;-72
2023/06/15 10:41:11;;;;;;;9.52;3.65;;;25.80;80.50;;;;;;5056521;28;20474;-74
2023/06/15 10:43:36;;;;;;;9.13;4.13;;;25.80;79.30;;;;;;5036248;28;20099;-74
2023/06/15 10:46:02;;;;;;;8.23;3.47;;;25.90;79.50;;;;;;5041315;28;20061;-77
2023/06/15 10:48:29;;;;;;;10.15;3.20;;;25.90;79.50;;;;;;5036677;28;20089;-71
2023/06/15 11:08:17;;;;;;;;;;;28.20;66.70;;;;;;5140077;27;20107;-64
2023/06/15 11:10:43;;;;;;;;;;;28.80;65.50;;;;;;5074270;28;20015;-64
2023/06/15 11:13:08;;;;;;;;;;;28.90;64.40;;;;;;5030117;28;19995;-67
2023/06/15 11:15:35;;;;;;;;;;;29.10;63.80;;;;;;5076508;28;20298;-66
2023/06/15 11:18:05;;;;;;;;;;;29.10;63.70;;;;;;5074252;28;20415;-65
2023/06/15 11:20:51;;;;;;;5.30;2.72;;;29.20;63.30;;;;;;5079745;28;20402;-73
2023/06/15 11:23:23;;;;;;;5.63;2.90;;;29.30;63.20;;;;;;5060777;28;20055;-71
2023/06/15 11:25:50;;;;;;;7.22;2.70;;;29.50;64.50;;;;;;5067823;28;20044;-64
2023/06/15 11:28:21;;;;;;;4.88;2.60;;;29.60;63.80;;;;;;5068014;28;20049;-63
2023/06/15 11:30:47;;;;;;;10.73;2.92;;;29.60;63.80;;;;;;5068872;28;20063;-63
2023/06/15 11:33:13;;;;;;;10.13;2.75;;;29.60;63.70;;;;;;5069739;28;20114;-65
2023/06/15 11:35:40;;;;;;;4.13;2.50;;;29.60;63.60;;;;;;5104658;28;20048;-66
2023/06/15 11:38:07;;;;;;;6.20;2.50;;;29.50;63.50;;;;;;5076591;28;20052;-65
2023/06/15 11:40:33;;;;;;;4.10;2.45;;;29.60;62.90;;;;;;5078559;28;20041;-65
2023/06/15 11:43:00;;;;;;;3.90;2.60;;;29.60;63.40;;;;;;5073454;28;20096;-65
2023/06/15 11:45:26;;;;;;;6.88;2.97;;;29.60;64.10;;;;;;5083594;28;20079;-65
2023/06/15 11:47:52;;;;;;;12.05;2.97;;;29.50;64.50;;;;;;5066589;28;20060;-65
2023/06/15 11:50:20;;;;;;;5.47;2.63;;;29.50;64.10;;;;;;5064082;28;20597;-65
2023/06/15 11:52:47;;;;;;;8.15;3.33;;;29.40;64.50;;;;;;5066171;28;20052;-64
2023/06/15 11:55:15;;;;;;;6.38;2.70;;;29.40;64.30;;;;;;5067224;28;20044;-64
2023/06/15 11:57:43;;;;;;;6.78;2.83;;;29.40;63.90;;;;;;5068240;28;20066;-64
2023/06/15 12:00:10;;;;;;;4.25;2.85;;;29.40;63.40;;;;;;5067515;28;20051;-68
2023/06/15 12:02:37;;;;;;;4.65;2.95;;;29.60;64.30;;;;;;5068020;28;20120;-65
2023/06/15 12:05:04;;;;;;;7.28;2.85;;;29.40;64.40;;;;;;5066564;28;20045;-65
2023/06/15 12:07:35;;;;;;;9.15;2.65;;;29.50;64.40;;;;;;5067475;28;20063;-65
2023/06/15 12:10:03;;;;;;;6.20;3.10;;;29.50;63.80;;;;;;5067471;28;20053;-65
2023/06/15 12:12:33;;;;;;;6.07;2.95;;;29.50;63.50;;;;;;5066435;28;20044;-65
2023/06/15 12:15:04;;;;;;;7.13;3.20;;;29.30;62.80;;;;;;5067702;28;20091;-66
2023/06/15 12:17:32;;;;;;;6.80;2.78;;;29.30;63.60;;;;;;5054722;28;20497;-66
2023/06/15 12:20:04;;;;;;;6.35;2.67;;;29.50;64.60;;;;;;5036606;28;20128;-67
2023/06/15 12:22:34;;;;;;;9.77;2.90;;;29.70;64.60;;;;;;5053727;28;20076;-67
2023/06/15 12:25:00;;;;;;;5.32;2.70;;;29.80;64.00;;;;;;5054349;28;20048;-68
2023/06/15 12:27:26;;;;;;;7.50;3.00;;;29.70;64.70;;;;;;5051187;28;20048;-67
2023/06/15 12:30:12;;;;;;;7.53;2.78;;;29.50;64.70;;;;;;5050980;28;20057;-66
2023/06/15 12:32:48;;;;;;;6.32;2.70;;;29.50;64.00;;;;;;5052841;28;20448;-67
2023/06/15 12:35:27;;;;;;;8.65;2.83;;;29.30;63.00;;;;;;5072751;28;20063;-70
2023/06/15 12:37:55;;;;;;;6.20;2.80;;;29.30;62.60;;;;;;5074449;28;20048;-65
2023/06/15 12:40:21;;;;;;;6.05;2.70;;;29.00;62.80;;;;;;5066034;28;20067;-66
2023/06/15 12:42:56;;;;;;;6.82;3.00;;;28.90;63.00;;;;;;5064956;28;20037;-66
2023/06/15 12:45:22;;;;;;;7.93;2.78;;;28.90;63.20;;;;;;5067045;28;20498;-66
2023/06/15 12:47:47;;;;;;;5.63;2.80;;;28.80;63.00;;;;;;5019456;28;20052;-66
2023/06/15 12:50:13;;;;;;;6.78;2.83;;;28.70;63.50;;;;;;5068460;28;20049;-66
2023/06/15 12:52:39;;;;;;;5.68;2.80;;;28.70;64.10;;;;;;5065969;28;20044;-67
2023/06/15 12:55:06;;;;;;;5.60;2.88;;;28.60;63.40;;;;;;5041924;28;20213;-66
2023/06/15 12:57:31;;;;;;;6.18;2.72;;;28.60;63.50;;;;;;5052344;28;20044;-66
2023/06/15 12:59:57;;;;;;;5.47;2.83;;;28.50;63.50;;;;;;5073065;28;20159;-66
2023/06/15 13:02:24;;;;;;;4.10;3.00;;;28.30;63.50;;;;;;5071900;28;20082;-65
2023/06/15 13:04:51;;;;;;;6.18;3.03;;;28.40;63.90;;;;;;5062353;28;20461;-65